»·PEaware :: N62DM KFMN-KABQ

N62DM :: KFMN-KABQ

FLIGHT INFORMATION

Flight Status: Arrived
Operator: Privately registered:
United States
More flights under this callsign
Pilot: Joe L. (24029)
Aircraft: DIAMOND DA-42 TWINSTAR
(DA42)
More flights by this aircraft type
Origin: KFMN Four Corners Regl
United States
Destination: KABQ Albuquerque Intl Sunport
United States
More flights between these airports :: More routes between these airports
Route: OTINS V68 ABQ
File this flight plan on PilotEdge
Remarks:
Altitude:
(Current/Filed)
11,500ft
Speed:
(Current/Filed)
150kts
Departed: 23-Mar-19 08:01 AM
Arrived: 23-Mar-19 08:52 AM
Distance/Time
Traveled:
129nm/0:51
Distance/Time
To Go:
Arrived

Flight Plot

Page will automatically refresh every two minutes.

Flight plan parsing failed; only flown route is shown


Map Options




Map Legend


Flown Route
Filed Route
Departure Airport
Arrival Airport
Navaid (VOR, NDB)
Fix

Horizontal Profiles

Position Reports

Time Latitude Longitude Heading Altitude Ground
Speed
23-Mar-19 07:51 36.740094 -108.224475 88 5509ft 0kts
23-Mar-19 07:52 36.740094 -108.224475 88 5509ft 0kts
23-Mar-19 07:53 36.740094 -108.224475 88 5509ft 0kts
23-Mar-19 07:54 36.740094 -108.224475 88 5509ft 0kts
23-Mar-19 07:55 36.740094 -108.224475 88 5509ft 0kts
23-Mar-19 07:56 36.740278 -108.223755 64 5509ft 7kts
23-Mar-19 07:57 36.740797 -108.219764 88 5509ft 14kts
23-Mar-19 07:58 36.740988 -108.217537 70 5509ft 0kts
23-Mar-19 07:59 36.741609 -108.217398 267 5509ft 3kts
23-Mar-19 08:00 36.741382 -108.235798 269 5749ft 97kts
23-Mar-19 08:01 36.738480 -108.268314 227 6871ft 92kts
23-Mar-19 08:02 36.711543 -108.268813 169 7968ft 106kts
23-Mar-19 08:03 36.704705 -108.236992 77 9066ft 116kts
23-Mar-19 08:04 36.713182 -108.197106 90 10269ft 124kts
23-Mar-19 08:05 36.707287 -108.151900 119 11336ft 145kts
23-Mar-19 08:06 36.685676 -108.097768 116 11508ft 195kts
23-Mar-19 08:07 36.661341 -108.035795 116 11508ft 200kts
23-Mar-19 08:08 36.636847 -107.973494 115 11508ft 201kts
23-Mar-19 08:09 36.612074 -107.910707 115 11509ft 202kts
23-Mar-19 08:10 36.587218 -107.847837 115 11509ft 202kts
23-Mar-19 08:11 36.554142 -107.791544 128 11507ft 202kts
23-Mar-19 08:12 36.519192 -107.736554 129 11506ft 200kts
23-Mar-19 08:13 36.484914 -107.682629 129 11503ft 198kts
23-Mar-19 08:14 36.450882 -107.629068 129 11504ft 197kts
23-Mar-19 08:15 36.416712 -107.575567 129 11506ft 197kts
23-Mar-19 08:16 36.382586 -107.522116 129 11509ft 198kts
23-Mar-19 08:17 36.348274 -107.468517 129 11510ft 198kts
23-Mar-19 08:18 36.313888 -107.414877 128 11512ft 198kts
23-Mar-19 08:19 36.279455 -107.361243 129 11504ft 199kts
23-Mar-19 08:20 36.244945 -107.307605 129 11502ft 199kts
23-Mar-19 08:21 36.210273 -107.253801 129 11502ft 199kts
23-Mar-19 08:22 36.175648 -107.200089 129 11502ft 200kts
23-Mar-19 08:23 36.126655 -107.174089 169 11509ft 194kts
23-Mar-19 08:24 36.074403 -107.156580 168 11509ft 195kts
23-Mar-19 08:25 36.022010 -107.139053 168 11509ft 195kts
23-Mar-19 08:26 35.969483 -107.121496 169 11509ft 195kts
23-Mar-19 08:27 35.917196 -107.104088 169 11509ft 194kts
23-Mar-19 08:28 35.864775 -107.086667 169 11509ft 195kts
23-Mar-19 08:29 35.812407 -107.069266 169 11509ft 195kts
23-Mar-19 08:30 35.760060 -107.051882 169 11509ft 195kts
23-Mar-19 08:31 35.707711 -107.034497 169 11509ft 195kts
23-Mar-19 08:32 35.655223 -107.017073 169 11509ft 195kts
23-Mar-19 08:33 35.602862 -106.999790 169 11509ft 195kts
23-Mar-19 08:34 35.550558 -106.982422 169 11509ft 195kts
23-Mar-19 08:35 35.498147 -106.965166 169 11098ft 193kts
23-Mar-19 08:36 35.446573 -106.948214 168 10649ft 190kts
23-Mar-19 08:37 35.395720 -106.931548 168 10205ft 187kts
23-Mar-19 08:38 35.345850 -106.915079 167 9767ft 185kts
23-Mar-19 08:39 35.296821 -106.898959 167 9503ft 175kts
23-Mar-19 08:40 35.250974 -106.883974 168 9500ft 168kts
23-Mar-19 08:41 35.205969 -106.869222 168 9501ft 167kts
23-Mar-19 08:42 35.161145 -106.854567 168 9501ft 167kts
23-Mar-19 08:43 35.116125 -106.839905 167 9501ft 167kts
23-Mar-19 08:44 35.071183 -106.825229 168 9502ft 167kts
23-Mar-19 08:45 35.029684 -106.801397 151 9039ft 161kts
23-Mar-19 08:46 34.993946 -106.769507 127 7996ft 151kts
23-Mar-19 08:47 34.972621 -106.733470 126 7217ft 126kts
23-Mar-19 08:48 34.971814 -106.694073 55 7067ft 124kts
23-Mar-19 08:49 34.994549 -106.662932 40 6616ft 130kts
23-Mar-19 08:50 35.019745 -106.633664 45 5511ft 116kts
23-Mar-19 08:51 35.033650 -106.617357 3 5358ft 16kts

Navigation Log

Ident Type
Flight plan parsing failed, navigation log unavailable